Time;durP1;ratioP1;P1;durP2;ratioP2;P2;SDS_P1;SDS_P2;PMS_P1;PMS_P2;Temp;Humidity;BMP_temperature;BMP_pressure;BME280_temperature;BME280_humidity;BME280_pressure;Samples;Min_cycle;Max_cycle;Signal;HPM_P1;HPM_P2
2023/01/30 00:01:31;;;;;;;;;;;17.30;46.10;;;;;;5073108;28;19928;-75
2023/01/30 00:03:56;;;;;;;;;;;17.30;46.10;;;;;;5074636;28;20062;-75
2023/01/30 00:06:22;;;;;;;;;;;17.30;46.40;;;;;;5074384;28;20010;-75
2023/01/30 00:08:47;;;;;;;;;;;17.30;46.40;;;;;;5057392;28;20001;-74
2023/01/30 00:11:13;;;;;;;;;;;17.30;46.20;;;;;;5064191;28;19912;-74
2023/01/30 00:13:39;;;;;;;;;;;17.20;46.30;;;;;;5067296;28;19916;-74
2023/01/30 00:16:05;;;;;;;;;;;17.20;46.30;;;;;;5074455;28;19912;-74
2023/01/30 00:18:30;;;;;;;;;;;17.20;46.40;;;;;;5075212;28;19952;-74
2023/01/30 00:20:59;;;;;;;;;;;17.20;46.40;;;;;;5073411;28;20380;-75
2023/01/30 00:23:25;;;;;;;;;;;17.20;46.40;;;;;;5073747;28;19963;-74
2023/01/30 00:25:50;;;;;;;;;;;17.10;46.40;;;;;;5075556;28;20361;-74
2023/01/30 00:28:16;;;;;;;;;;;17.10;46.30;;;;;;5069081;28;19943;-73
2023/01/30 00:30:41;;;;;;;;;;;17.10;46.50;;;;;;5071000;28;19923;-75
2023/01/30 00:33:07;;;;;;;;;;;17.10;46.60;;;;;;5066041;28;19960;-74
2023/01/30 00:35:33;;;;;;;;;;;17.00;46.70;;;;;;5087873;28;19913;-74
2023/01/30 00:37:58;;;;;;;;;;;17.00;46.80;;;;;;5071270;28;20007;-75
2023/01/30 00:40:24;;;;;;;;;;;17.00;46.80;;;;;;5071272;28;19917;-75
2023/01/30 00:48:18;;;;;;;;;;;16.90;47.00;;;;;;5072403;28;19923;-74
2023/01/30 00:50:44;;;;;;;;;;;16.90;46.80;;;;;;5073224;28;19908;-74
2023/01/30 00:53:12;;;;;;;;;;;16.90;47.00;;;;;;5073864;28;19966;-74
2023/01/30 00:55:38;;;;;;;;;;;16.80;46.90;;;;;;5073349;28;19916;-74
2023/01/30 00:58:03;;;;;;;;;;;16.80;47.30;;;;;;5072034;28;19919;-75
2023/01/30 01:00:29;;;;;;;;;;;16.80;47.00;;;;;;5074718;28;20368;-75
2023/01/30 01:02:54;;;;;;;;;;;16.80;47.30;;;;;;5074318;28;19917;-75
2023/01/30 01:05:19;;;;;;;;;;;16.80;47.10;;;;;;5073447;28;19913;-75
2023/01/30 01:07:45;;;;;;;;;;;16.70;47.20;;;;;;5073930;28;19924;-75
2023/01/30 01:10:15;;;;;;;;;;;16.70;47.10;;;;;;5073641;28;19912;-75
2023/01/30 01:12:43;;;;;;;;;;;16.70;47.40;;;;;;5071140;28;19908;-74
2023/01/30 01:15:10;;;;;;;;;;;16.70;47.20;;;;;;5065257;28;19966;-75
2023/01/30 01:17:36;;;;;;;;;;;16.70;47.10;;;;;;5074480;28;20406;-74
2023/01/30 01:20:01;;;;;;;;;;;16.70;47.50;;;;;;5072854;28;20015;-75
2023/01/30 01:22:27;;;;;;;;;;;16.70;47.20;;;;;;5064456;28;20299;-74
2023/01/30 01:24:52;;;;;;;;;;;16.70;47.10;;;;;;5059379;28;19959;-75
2023/01/30 01:27:18;;;;;;;;;;;16.60;47.40;;;;;;5073911;28;19916;-75
2023/01/30 01:29:44;;;;;;;;;;;16.60;47.30;;;;;;5074307;28;19940;-75
2023/01/30 01:32:09;;;;;;;;;;;16.60;47.40;;;;;;5072972;28;19908;-74
2023/01/30 01:34:35;;;;;;;;;;;16.60;47.50;;;;;;5073648;28;19927;-75
2023/01/30 01:37:00;;;;;;;;;;;16.50;47.40;;;;;;5073822;28;19998;-75
2023/01/30 01:41:00;;;;;;;;;;;16.60;47.30;;;;;;5071820;28;20361;-75
2023/01/30 01:42:11;;;;;;;;;;;16.60;47.50;;;;;;5073609;28;20003;-75
2023/01/30 01:44:55;;;;;;;;;;;16.50;47.60;;;;;;5051340;28;20095;-74
2023/01/30 01:47:21;;;;;;;;;;;16.50;47.70;;;;;;5055272;28;20403;-75
2023/01/30 01:49:46;;;;;;;;;;;16.50;47.70;;;;;;5069287;28;19912;-74
2023/01/30 01:52:12;;;;;;;;;;;16.50;47.40;;;;;;5052633;28;19964;-74
2023/01/30 01:54:37;;;;;;;;;;;16.50;47.40;;;;;;5069297;28;19955;-75
2023/01/30 01:57:04;;;;;;;;;;;16.40;47.40;;;;;;5069973;28;20007;-74
2023/01/30 01:59:31;;;;;;;;;;;16.40;47.40;;;;;;5072263;28;19962;-75
2023/01/30 02:01:57;;;;;;;;;;;16.40;47.70;;;;;;5060724;28;19913;-75
2023/01/30 02:07:07;;;;;;;;;;;16.40;47.60;;;;;;5052279;28;20438;-75
2023/01/30 02:09:32;;;;;;;;;;;16.30;47.60;;;;;;5054762;28;19916;-75
2023/01/30 02:11:58;;;;;;;;;;;16.40;47.60;;;;;;5071711;28;20356;-75
2023/01/30 02:14:23;;;;;;;;;;;16.50;47.40;;;;;;5071411;28;20376;-75
2023/01/30 02:16:49;;;;;;;;;;;16.60;47.70;;;;;;5069335;28;19916;-74
2023/01/30 02:19:28;;;;;;;;;;;16.70;46.80;;;;;;5072045;28;19918;-74
2023/01/30 02:22:09;;;;;;;;;;;16.90;46.90;;;;;;5072114;28;19962;-75
2023/01/30 02:24:40;;;;;;;;;;;17.30;46.20;;;;;;5072761;28;20142;-75
2023/01/30 02:27:13;;;;;;;;;;;17.70;45.40;;;;;;5064777;28;19959;-75
2023/01/30 02:29:50;;;;;;;;;;;18.30;44.50;;;;;;5070663;28;19920;-74
2023/01/30 02:32:18;;;;;;;;;;;18.70;43.40;;;;;;5070195;28;19920;-75
2023/01/30 02:35:02;;;;;;;;;;;19.00;43.10;;;;;;5071474;28;19912;-75
2023/01/30 02:37:34;;;;;;;;;;;18.90;43.10;;;;;;5070694;28;19982;-75
2023/01/30 02:40:24;;;;;;;;;;;18.80;43.40;;;;;;5071880;28;20304;-74
2023/01/30 02:43:08;;;;;;;;;;;18.80;43.50;;;;;;5071730;28;19912;-75
2023/01/30 02:45:48;;;;;;;;;;;18.80;43.50;;;;;;5072620;28;19962;-75
2023/01/30 02:48:34;;;;;;;;;;;18.90;43.30;;;;;;5072377;28;20042;-75
2023/01/30 02:51:00;;;;;;;;;;;19.00;43.00;;;;;;5064670;28;19923;-75
2023/01/30 02:53:28;;;;;;;;;;;19.20;42.60;;;;;;5079809;28;20368;-75
2023/01/30 02:55:54;;;;;;;;;;;19.50;42.10;;;;;;5068579;28;19981;-75
2023/01/30 02:58:19;;;;;;;;;;;19.80;41.60;;;;;;5069435;28;19916;-75
2023/01/30 03:00:45;;;;;;;;;;;20.10;41.10;;;;;;5069715;28;19962;-75
2023/01/30 03:03:25;;;;;;;;;;;20.30;40.70;;;;;;5072361;28;20348;-75
2023/01/30 03:05:57;;;;;;;;;;;20.30;40.40;;;;;;5067186;28;19919;-74
2023/01/30 03:08:41;;;;;;;;;;;20.30;40.50;;;;;;5070054;28;20399;-75
2023/01/30 03:11:07;;;;;;;;;;;20.30;40.50;;;;;;5060607;28;19912;-75
2023/01/30 03:13:44;;;;;;;;;;;20.30;40.70;;;;;;5061978;28;20250;-75
2023/01/30 03:16:10;;;;;;;;;;;20.20;40.80;;;;;;5051219;28;19919;-75
2023/01/30 03:18:35;;;;;;;;;;;19.90;41.20;;;;;;5063855;28;19991;-73
2023/01/30 03:21:04;;;;;;;;;;;19.60;41.70;;;;;;5067645;28;19920;-75
2023/01/30 03:23:30;;;;;;;;;;;19.40;42.10;;;;;;5067394;28;19917;-75
2023/01/30 03:25:55;;;;;;;;;;;19.30;42.50;;;;;;5068548;28;19916;-75
2023/01/30 03:28:21;;;;;;;;;;;19.10;42.90;;;;;;5070791;28;19916;-75
2023/01/30 03:30:46;;;;;;;;;;;18.90;43.30;;;;;;5078407;28;19908;-75
2023/01/30 03:33:11;;;;;;;;;;;18.70;43.30;;;;;;5071554;28;19917;-75
2023/01/30 03:35:37;;;;;;;;;;;18.60;43.80;;;;;;5071816;28;20330;-75
2023/01/30 03:38:02;;;;;;;;;;;18.40;43.90;;;;;;5073620;28;20295;-75
2023/01/30 03:40:28;;;;;;;;;;;18.30;44.10;;;;;;5074807;28;19912;-75
2023/01/30 03:42:53;;;;;;;;;;;18.20;44.10;;;;;;5070152;28;19913;-74
2023/01/30 03:45:19;;;;;;;;;;;18.20;44.20;;;;;;5074155;28;19969;-73
2023/01/30 03:47:44;;;;;;;;;;;18.20;44.60;;;;;;5073891;28;20128;-75
2023/01/30 03:50:09;;;;;;;;;;;18.20;44.70;;;;;;5074087;28;19912;-75
2023/01/30 03:52:35;;;;;;;;;;;18.20;44.60;;;;;;5079276;28;19912;-75
2023/01/30 03:55:00;;;;;;;;;;;18.30;44.30;;;;;;5075823;28;19908;-75
2023/01/30 03:57:26;;;;;;;;;;;18.40;44.10;;;;;;5074492;28;19959;-75
2023/01/30 03:59:51;;;;;;;;;;;18.60;43.70;;;;;;5074460;28;20301;-75
2023/01/30 04:02:21;;;;;;;;;;;18.70;43.40;;;;;;5072572;28;20279;-75
2023/01/30 04:04:47;;;;;;;;;;;19.00;43.20;;;;;;5074316;28;19912;-74
2023/01/30 04:07:13;;;;;;;;;;;19.10;42.90;;;;;;5074333;28;19924;-75
2023/01/30 04:09:38;;;;;;;;;;;19.30;42.60;;;;;;5071484;28;19916;-74
2023/01/30 04:12:04;;;;;;;;;;;19.40;42.30;;;;;;5073270;28;19916;-75
2023/01/30 04:14:29;;;;;;;;;;;19.50;42.20;;;;;;5071654;28;19916;-74
2023/01/30 04:16:55;;;;;;;;;;;19.50;42.00;;;;;;5071801;28;19962;-74
2023/01/30 04:19:20;;;;;;;;;;;19.60;42.00;;;;;;5068936;28;19913;-75
2023/01/30 04:21:45;;;;;;;;;;;19.60;42.00;;;;;;5058847;28;19916;-75
2023/01/30 04:24:11;;;;;;;;;;;19.50;41.90;;;;;;5072414;28;20020;-75
2023/01/30 04:26:36;;;;;;;;;;;19.50;42.00;;;;;;5072583;28;19913;-74
2023/01/30 04:29:02;;;;;;;;;;;19.40;42.10;;;;;;5073071;28;19973;-75
2023/01/30 04:31:27;;;;;;;;;;;19.40;42.40;;;;;;5068911;28;20376;-75
2023/01/30 04:33:53;;;;;;;;;;;19.30;42.50;;;;;;5052822;28;20360;-74
2023/01/30 04:36:18;;;;;;;;;;;19.20;42.60;;;;;;5068643;28;19912;-75
2023/01/30 04:38:44;;;;;;;;;;;19.10;42.80;;;;;;5072042;28;19916;-74
2023/01/30 04:41:09;;;;;;;;;;;19.00;43.00;;;;;;5073636;28;19946;-74
2023/01/30 04:43:34;;;;;;;;;;;18.90;43.30;;;;;;5061848;28;19917;-74
2023/01/30 04:46:00;;;;;;;;;;;18.80;43.40;;;;;;5071461;28;19956;-74
2023/01/30 04:48:25;;;;;;;;;;;18.70;43.40;;;;;;5071231;28;19917;-74
2023/01/30 04:50:52;;;;;;;;;;;18.60;43.50;;;;;;5065568;28;19925;-74
2023/01/30 04:53:17;;;;;;;;;;;18.60;43.90;;;;;;5060861;28;19912;-74
2023/01/30 04:55:43;;;;;;;;;;;18.60;43.90;;;;;;5073530;28;20003;-75
2023/01/30 04:58:08;;;;;;;;;;;18.60;44.00;;;;;;5072261;28;20003;-75
2023/01/30 05:00:34;;;;;;;;;;;18.50;44.10;;;;;;5072727;28;19974;-75
2023/01/30 05:02:59;;;;;;;;;;;18.60;44.00;;;;;;5069382;28;19924;-75
2023/01/30 05:05:25;;;;;;;;;;;18.60;44.10;;;;;;5073784;28;19918;-75
2023/01/30 05:07:50;;;;;;;;;;;18.60;44.00;;;;;;5069046;28;19983;-74
2023/01/30 05:10:16;;;;;;;;;;;18.70;43.80;;;;;;5073570;28;19918;-74
2023/01/30 05:12:41;;;;;;;;;;;18.70;43.70;;;;;;5070875;28;19921;-74
2023/01/30 05:15:07;;;;;;;;;;;18.70;43.50;;;;;;5063802;28;19966;-75
2023/01/30 05:17:33;;;;;;;;;;;18.80;43.50;;;;;;5071595;28;19916;-74
2023/01/30 05:19:58;;;;;;;;;;;18.90;43.50;;;;;;5069036;28;20365;-74
2023/01/30 05:22:23;;;;;;;;;;;18.90;43.50;;;;;;5077177;28;19923;-75
2023/01/30 05:24:49;;;;;;;;;;;18.90;43.50;;;;;;5078475;28;19923;-75
2023/01/30 05:27:14;;;;;;;;;;;18.90;43.50;;;;;;5069523;28;19928;-74
2023/01/30 05:29:40;;;;;;;;;;;18.90;43.50;;;;;;5072661;28;19923;-75
2023/01/30 05:32:05;;;;;;;;;;;18.80;43.50;;;;;;5066586;28;19916;-74
2023/01/30 05:34:31;;;;;;;;;;;18.70;43.60;;;;;;5072944;28;19939;-75
2023/01/30 05:36:56;;;;;;;;;;;18.70;43.90;;;;;;5071165;28;19912;-73
2023/01/30 05:39:21;;;;;;;;;;;18.60;44.10;;;;;;5071642;28;20032;-74
2023/01/30 05:41:47;;;;;;;;;;;18.60;44.20;;;;;;5072398;28;19912;-75
2023/01/30 05:44:12;;;;;;;;;;;18.50;44.20;;;;;;5071979;28;19912;-74
2023/01/30 05:46:38;;;;;;;;;;;18.40;44.30;;;;;;5070642;28;19917;-75
2023/01/30 05:49:03;;;;;;;;;;;18.40;44.90;;;;;;5071715;28;19973;-74
2023/01/30 05:51:29;;;;;;;;;;;18.50;44.40;;;;;;5069530;28;19931;-74
2023/01/30 05:53:54;;;;;;;;;;;18.50;44.40;;;;;;5071867;28;20011;-75
2023/01/30 05:56:20;;;;;;;;;;;18.50;44.30;;;;;;5051363;28;20046;-74
2023/01/30 05:58:49;;;;;;;;;;;18.50;44.40;;;;;;5068116;28;19912;-74
2023/01/30 06:01:14;;;;;;;;;;;18.50;44.30;;;;;;5073078;28;19924;-75
2023/01/30 06:03:40;;;;;;;;;;;18.60;44.20;;;;;;5072274;28;19908;-75
2023/01/30 06:06:05;;;;;;;;;;;18.60;44.00;;;;;;5071839;28;19916;-74
2023/01/30 06:08:31;;;;;;;;;;;18.60;44.00;;;;;;5072287;28;19922;-75
2023/01/30 06:11:03;;;;;;;;;;;18.70;43.90;;;;;;5071681;28;19909;-74
2023/01/30 06:13:29;;;;;;;;;;;18.70;43.80;;;;;;5063202;28;20386;-75
2023/01/30 06:15:54;;;;;;;;;;;18.80;43.90;;;;;;5068863;28;19908;-75
2023/01/30 06:18:20;;;;;;;;;;;18.80;43.90;;;;;;5057152;28;20369;-75
2023/01/30 06:20:46;;;;;;;;;;;18.70;43.80;;;;;;5071596;28;20410;-75
2023/01/30 06:23:11;;;;;;;;;;;18.70;44.00;;;;;;5072157;28;20342;-75
2023/01/30 06:25:37;;;;;;;;;;;18.70;44.00;;;;;;5073047;28;19958;-73
2023/01/30 06:28:02;;;;;;;;;;;18.60;43.90;;;;;;5071299;28;19912;-75
2023/01/30 06:30:28;;;;;;;;;;;18.60;44.20;;;;;;5071585;28;19909;-75
2023/01/30 06:32:53;;;;;;;;;;;18.60;44.20;;;;;;5072873;28;19908;-75
2023/01/30 06:35:18;;;;;;;;;;;18.60;44.20;;;;;;5068117;28;19939;-75
2023/01/30 06:37:44;;;;;;;;;;;18.60;44.30;;;;;;5069550;28;19939;-75
2023/01/30 06:40:10;;;;;;;;;;;18.60;44.20;;;;;;5072055;28;19978;-75
2023/01/30 06:42:35;;;;;;;;;;;18.60;44.20;;;;;;5077457;28;19984;-75
2023/01/30 06:45:01;;;;;;;;;;;18.60;44.00;;;;;;5085068;28;19909;-74
2023/01/30 06:47:26;;;;;;;;;;;18.70;44.10;;;;;;5072717;28;19920;-75
2023/01/30 06:49:52;;;;;;;;;;;18.80;43.90;;;;;;5054608;28;20002;-75
2023/01/30 06:52:17;;;;;;;;;;;18.80;43.60;;;;;;5071627;28;20503;-75
2023/01/30 06:54:43;;;;;;;;;;;18.80;43.60;;;;;;5069913;28;19998;-75
2023/01/30 06:57:08;;;;;;;;;;;18.90;43.60;;;;;;5070660;28;20291;-75
2023/01/30 06:59:33;;;;;;;;;;;18.90;43.60;;;;;;5065672;28;19943;-75
2023/01/30 07:01:59;;;;;;;;;;;18.90;43.60;;;;;;5070747;28;19916;-75
2023/01/30 07:04:24;;;;;;;;;;;18.90;43.50;;;;;;5070883;28;19985;-75
2023/01/30 07:06:50;;;;;;;;;;;18.80;43.50;;;;;;5066974;28;19920;-74
2023/01/30 07:09:15;;;;;;;;;;;18.80;43.80;;;;;;5069100;28;19924;-75
2023/01/30 07:11:41;;;;;;;;;;;18.80;43.80;;;;;;5064142;28;19912;-75
2023/01/30 07:14:07;;;;;;;;;;;18.80;43.90;;;;;;5071340;28;19918;-74
2023/01/30 07:16:33;;;;;;;;;;;18.70;44.00;;;;;;5069715;28;19913;-75
2023/01/30 07:18:58;;;;;;;;;;;18.70;44.20;;;;;;5065314;28;19939;-75
2023/01/30 07:21:24;;;;;;;;;;;18.60;44.10;;;;;;5051829;28;19962;-75
2023/01/30 07:23:49;;;;;;;;;;;18.60;44.20;;;;;;5049474;28;19927;-75
2023/01/30 07:26:15;;;;;;;;;;;18.60;44.30;;;;;;5053373;28;19956;-75
2023/01/30 07:28:40;;;;;;;;;;;18.50;44.40;;;;;;5070977;28;19912;-75
2023/01/30 07:31:06;;;;;;;;;;;18.60;44.50;;;;;;5072082;28;19912;-75
2023/01/30 07:33:31;;;;;;;;;;;18.60;44.50;;;;;;5072172;28;19912;-75
2023/01/30 07:35:56;;;;;;;;;;;18.60;44.50;;;;;;5066770;28;19928;-74
2023/01/30 07:38:22;;;;;;;;;;;18.60;44.30;;;;;;5061897;28;19960;-74
2023/01/30 07:40:47;;;;;;;;;;;18.60;44.40;;;;;;5060090;28;19996;-75
2023/01/30 07:43:13;;;;;;;;;;;18.70;44.30;;;;;;5069635;28;19923;-75
2023/01/30 07:45:45;;;;;;;;;;;19.10;43.70;;;;;;5070853;28;19983;-74
2023/01/30 07:48:11;;;;;;;;;;;19.60;42.70;;;;;;5067220;28;19916;-76
2023/01/30 07:50:37;;;;;;;;;;;20.10;41.80;;;;;;5066372;28;20383;-75
2023/01/30 07:53:03;;;;;;;;;;;20.40;41.30;;;;;;5071320;28;19916;-76
2023/01/30 07:55:28;;;;;;;;;;;20.60;41.70;;;;;;5068133;28;19939;-75
2023/01/30 07:57:54;;;;;;;;;;;20.70;40.80;;;;;;5064443;28;20295;-75
2023/01/30 08:00:19;;;;;;;;;;;20.80;40.60;;;;;;5068648;28;20288;-75
2023/01/30 08:02:45;;;;;;;;;;;21.00;40.30;;;;;;5066696;28;20387;-75
2023/01/30 08:05:10;;;;;;;;;;;21.30;40.10;;;;;;5069025;28;19913;-75
2023/01/30 08:07:36;;;;;;;;;;;21.60;39.40;;;;;;5065984;28;19917;-75
2023/01/30 08:10:01;;;;;;;;;;;21.90;39.10;;;;;;5068460;28;19924;-75
2023/01/30 08:12:27;;;;;;;;;;;22.20;39.00;;;;;;5063327;28;19913;-75
2023/01/30 08:14:53;;;;;;;;;;;22.40;39.70;;;;;;5067412;28;19913;-76
2023/01/30 08:17:18;;;;;;;;;;;22.50;38.90;;;;;;5062525;28;19916;-75
2023/01/30 08:19:44;;;;;;;;;;;22.60;38.90;;;;;;5061196;28;20330;-75
2023/01/30 08:22:09;;;;;;;;;;;22.60;39.00;;;;;;5062652;28;19939;-74
2023/01/30 08:24:35;;;;;;;;;;;22.60;38.90;;;;;;5070821;28;19921;-75
2023/01/30 08:27:00;;;;;;;;;;;22.60;38.80;;;;;;5072338;28;20303;-76
2023/01/30 08:29:26;;;;;;;;;;;22.60;38.80;;;;;;5071401;28;19920;-75
2023/01/30 08:31:55;;;;;;;;;;;22.70;38.90;;;;;;5065039;28;20267;-74
2023/01/30 08:34:20;;;;;;;;;;;22.70;38.90;;;;;;5067764;28;19978;-76
2023/01/30 08:36:47;;;;;;;;;;;22.60;39.10;;;;;;5061115;28;20352;-75
2023/01/30 08:39:12;;;;;;;;;;;22.60;39.20;;;;;;5074035;28;19973;-75
2023/01/30 08:41:41;;;;;;;;;;;22.60;39.40;;;;;;5052108;28;19909;-75
2023/01/30 08:44:07;;;;;;;;;;;22.60;39.40;;;;;;5067279;28;19920;-75
2023/01/30 08:46:33;;;;;;;;;;;22.60;39.30;;;;;;5069621;28;19912;-75
2023/01/30 08:48:58;;;;;;;;;;;22.60;39.10;;;;;;5073940;28;19931;-75
2023/01/30 08:51:24;;;;;;;;;;;22.60;39.10;;;;;;5067293;28;19917;-74
2023/01/30 08:53:49;;;;;;;;;;;22.60;39.10;;;;;;5073665;28;20336;-75
2023/01/30 08:56:14;;;;;;;;;;;22.60;39.00;;;;;;5071839;28;19944;-75
2023/01/30 08:58:42;;;;;;;;;;;22.60;39.10;;;;;;5070322;28;19912;-75
2023/01/30 09:01:08;;;;;;;;;;;22.50;39.10;;;;;;5067974;28;19955;-75
2023/01/30 09:03:33;;;;;;;;;;;22.50;39.70;;;;;;5072232;28;19944;-75
2023/01/30 09:05:59;;;;;;;;;;;22.50;39.20;;;;;;5072332;28;19912;-75
2023/01/30 09:08:24;;;;;;;;;;;22.50;39.20;;;;;;5074770;28;19942;-75
2023/01/30 09:10:49;;;;;;;;;;;22.50;39.30;;;;;;5073525;28;19959;-75
2023/01/30 09:13:16;;;;;;;;;;;22.40;39.40;;;;;;5058001;28;20071;-75
2023/01/30 09:15:41;;;;;;;;;;;22.40;39.50;;;;;;5071591;28;19908;-75
2023/01/30 09:18:07;;;;;;;;;;;22.40;39.60;;;;;;5052130;28;19913;-75
2023/01/30 09:20:32;;;;;;;;;;;22.40;39.70;;;;;;5061817;28;19931;-75
2023/01/30 09:22:58;;;;;;;;;;;22.30;39.60;;;;;;5073617;28;19915;-75
2023/01/30 09:25:23;;;;;;;;;;;22.40;39.70;;;;;;5063004;28;20000;-75
2023/01/30 09:27:49;;;;;;;;;;;22.40;39.60;;;;;;5071532;28;19916;-74
2023/01/30 09:30:14;;;;;;;;;;;22.40;39.60;;;;;;5072016;28;19916;-75
2023/01/30 09:32:40;;;;;;;;;;;22.40;39.40;;;;;;5072302;28;19920;-75
2023/01/30 09:35:07;;;;;;;;;;;22.40;39.40;;;;;;5072437;28;19916;-75
2023/01/30 09:37:32;;;;;;;;;;;22.40;39.20;;;;;;5072969;28;19912;-76
2023/01/30 09:39:58;;;;;;;;;;;22.50;39.30;;;;;;5068521;28;19917;-75
2023/01/30 09:42:31;;;;;;;;;;;22.50;39.90;;;;;;5073403;28;20360;-75
2023/01/30 09:45:00;;;;;;;;;;;22.60;39.10;;;;;;5071253;28;19912;-75
2023/01/30 09:47:34;;;;;;;;;;;22.60;39.10;;;;;;5070322;28;19916;-75
2023/01/30 09:50:00;;;;;;;;;;;22.60;39.00;;;;;;5078504;28;19921;-75
2023/01/30 09:52:44;;;;;;;;;;;22.70;39.00;;;;;;5068143;28;20002;-75
2023/01/30 09:55:19;;;;;;;;;;;22.70;39.00;;;;;;5068923;28;20284;-75
2023/01/30 09:57:48;;;;;;;;;;;22.60;39.00;;;;;;5045370;28;19982;-74
2023/01/30 10:00:15;;;;;;;;;;;22.60;39.00;;;;;;5055581;28;20355;-73
2023/01/30 10:02:41;;;;;;;;;;;22.50;39.10;;;;;;5067409;28;19939;-75
2023/01/30 10:05:06;;;;;;;;;;;22.50;39.30;;;;;;5073077;28;19920;-75
2023/01/30 10:07:32;;;;;;;;;;;22.50;39.30;;;;;;5038519;28;19920;-75
2023/01/30 10:10:26;;;;;;;;;;;22.50;39.60;;;;;;5069423;28;19916;-75
2023/01/30 10:13:23;;;;;;;;;;;22.40;39.80;;;;;;5030015;28;19937;-74
2023/01/30 10:15:55;;;;;;;;;;;22.40;40.00;;;;;;5059959;28;19922;-75
2023/01/30 10:18:20;;;;;;;;;;;22.40;39.90;;;;;;5071392;28;19948;-74
2023/01/30 10:21:09;;;;;;;;;;;22.40;39.90;;;;;;5072651;28;19982;-75
2023/01/30 10:23:50;;;;;;;;;;;22.30;39.90;;;;;;5066600;28;19986;-74
2023/01/30 10:26:19;;;;;;;;;;;22.30;39.90;;;;;;5066561;28;19916;-75
2023/01/30 10:28:55;;;;;;;;;;;22.40;40.00;;;;;;5065242;28;20011;-74
2023/01/30 10:31:23;;;;;;;;;;;22.40;39.80;;;;;;5077483;28;21302;-74
2023/01/30 10:33:56;;;;;;;;;;;22.40;39.70;;;;;;5071620;28;20408;-74
2023/01/30 10:36:23;;;;;;;;;;;22.50;39.70;;;;;;5070080;28;19958;-74
2023/01/30 10:38:49;;;;;;;;;;;22.50;39.40;;;;;;5070789;28;19935;-73
2023/01/30 10:41:23;;;;;;;;;;;22.60;39.40;;;;;;5066693;28;20244;-74
2023/01/30 10:43:56;;;;;;;;;;;22.70;39.30;;;;;;5070977;28;19912;-74
2023/01/30 10:46:29;;;;;;;;;;;22.90;39.00;;;;;;5070812;28;20287;-73
2023/01/30 10:48:58;;;;;;;;;;;23.00;38.60;;;;;;5067641;28;19971;-74
2023/01/30 10:51:27;;;;;;;;;;;23.10;38.50;;;;;;5066229;28;19934;-74
2023/01/30 10:53:55;;;;;;;;;;;23.20;38.30;;;;;;5071380;28;19908;-74
2023/01/30 10:56:29;;;;;;;;;;;23.20;38.30;;;;;;5071269;28;20296;-74
2023/01/30 10:59:01;;;;;;;;;;;23.20;38.20;;;;;;5071575;28;19913;-74
2023/01/30 11:01:30;;;;;;;;;;;23.20;38.30;;;;;;5067017;28;19923;-74
2023/01/30 11:04:00;;;;;;;;;;;23.30;38.10;;;;;;5050411;28;19920;-74
2023/01/30 11:06:26;;;;;;;;;;;23.20;38.10;;;;;;5068028;28;19920;-74
2023/01/30 11:08:52;;;;;;;;;;;23.20;38.10;;;;;;5066600;28;19917;-74
2023/01/30 11:11:47;;;;;;;;;;;23.20;38.00;;;;;;5072270;28;19912;-74
2023/01/30 11:14:12;;;;;;;;;;;23.20;38.00;;;;;;5062260;28;19912;-74
2023/01/30 11:16:52;;;;;;;;;;;23.20;38.00;;;;;;5071209;28;19987;-74
2023/01/30 11:19:18;;;;;;;;;;;23.20;38.10;;;;;;5064539;28;20019;-74
2023/01/30 11:21:49;;;;;;;;;;;23.20;38.20;;;;;;5068863;28;19919;-74
2023/01/30 11:24:16;;;;;;;;;;;23.10;38.10;;;;;;5070742;28;19942;-74
2023/01/30 11:26:41;;;;;;;;;;;23.10;38.20;;;;;;5070494;28;19912;-74
2023/01/30 11:29:25;;;;;;;;;;;23.10;38.30;;;;;;5074181;28;19924;-74
2023/01/30 11:31:51;;;;;;;;;;;23.10;38.20;;;;;;5068385;28;20054;-74
2023/01/30 11:34:17;;;;;;;;;;;23.10;38.10;;;;;;5071181;28;20352;-74
2023/01/30 11:36:45;;;;;;;;;;;23.20;38.10;;;;;;5069966;28;20288;-74
2023/01/30 11:39:11;;;;;;;;;;;23.20;38.10;;;;;;5069302;28;19919;-74
2023/01/30 11:41:39;;;;;;;;;;;23.20;38.00;;;;;;5064996;28;19912;-74
2023/01/30 11:44:07;;;;;;;;;;;23.30;37.90;;;;;;5086620;28;19916;-74
2023/01/30 11:46:34;;;;;;;;;;;23.30;37.80;;;;;;5087011;28;19908;-74
2023/01/30 11:49:00;;;;;;;;;;;23.30;37.80;;;;;;5071628;28;19955;-74
2023/01/30 11:51:26;;;;;;;;;;;23.30;37.80;;;;;;5073222;28;20237;-74
2023/01/30 11:54:04;;;;;;;;;;;23.30;37.80;;;;;;5069860;28;20039;-74
2023/01/30 11:56:34;;;;;;;;;;;23.30;37.70;;;;;;5066349;28;19917;-74
2023/01/30 11:59:18;;;;;;;;;;;23.30;37.80;;;;;;5051676;28;19924;-74
2023/01/30 12:01:43;;;;;;;;;;;23.40;37.60;;;;;;5073591;28;19909;-74
2023/01/30 12:04:09;;;;;;;;;;;23.40;37.60;;;;;;5076152;28;19939;-74
2023/01/30 12:06:36;;;;;;;;;;;23.40;37.60;;;;;;5074651;28;20380;-73
2023/01/30 12:09:02;;;;;;;;;;;23.40;37.70;;;;;;5057226;28;20054;-74
2023/01/30 12:11:30;;;;;;;;;;;23.40;37.60;;;;;;5072545;28;19951;-74
2023/01/30 12:14:03;;;;;;;;;;;23.40;37.60;;;;;;5062331;28;20396;-74
2023/01/30 12:16:32;;;;;;;;;;;23.40;37.60;;;;;;5054316;28;19944;-74
2023/01/30 12:19:05;;;;;;;;;;;23.40;37.70;;;;;;5055290;28;20363;-74
2023/01/30 12:21:35;;;;;;;;;;;23.40;37.60;;;;;;5061635;28;19912;-74
2023/01/30 12:24:08;;;;;;;;;;;23.30;37.70;;;;;;5074297;28;19909;-74
2023/01/30 12:26:40;;;;;;;;;;;23.30;37.70;;;;;;5072105;28;20277;-74
2023/01/30 12:29:12;;;;;;;;;;;23.30;37.70;;;;;;5060375;28;19916;-74
2023/01/30 12:31:40;;;;;;;;;;;23.30;37.70;;;;;;5068307;28;19912;-74
2023/01/30 12:34:09;;;;;;;;;;;23.30;37.70;;;;;;5074516;28;19909;-74
2023/01/30 12:36:39;;;;;;;;;;;23.30;37.70;;;;;;5073536;28;20016;-74
2023/01/30 12:39:04;;;;;;;;;;;23.40;37.60;;;;;;5073701;28;19912;-73
2023/01/30 12:41:39;;;;;;;;;;;23.40;37.60;;;;;;5071958;28;19966;-73
2023/01/30 12:44:10;;;;;;;;;;;23.40;37.60;;;;;;5072627;28;20384;-74
2023/01/30 12:46:55;;;;;;;;;;;23.30;37.60;;;;;;5075161;28;20350;-73
2023/01/30 12:49:39;;;;;;;;;;;23.30;37.70;;;;;;5072449;28;19920;-74
2023/01/30 12:52:24;;;;;;;;;;;23.40;37.70;;;;;;5074899;28;20318;-74
2023/01/30 12:54:57;;;;;;;;;;;23.40;37.70;;;;;;5072763;28;19916;-74
2023/01/30 12:57:25;;;;;;;;;;;23.40;37.70;;;;;;5074475;28;19912;-74
2023/01/30 13:00:01;;;;;;;;;;;23.40;37.70;;;;;;5072644;28;20372;-74
2023/01/30 13:02:37;;;;;;;;;;;23.40;37.60;;;;;;5053256;28;19936;-74
2023/01/30 13:05:14;;;;;;;;;;;23.40;37.60;;;;;;5068800;28;19950;-74
2023/01/30 13:07:40;;;;;;;;;;;23.40;37.60;;;;;;5076751;28;19924;-74
2023/01/30 13:10:05;;;;;;;;;;;23.40;37.60;;;;;;5095682;28;19915;-74
2023/01/30 13:12:34;;;;;;;;;;;23.40;37.50;;;;;;5087365;28;19913;-74
2023/01/30 13:14:59;;;;;;;;;;;23.50;37.60;;;;;;5053451;28;20450;-74
2023/01/30 13:17:43;;;;;;;;;;;23.50;37.50;;;;;;5072823;28;19943;-74
2023/01/30 13:20:11;;;;;;;;;;;23.50;37.50;;;;;;5073661;28;20280;-73
2023/01/30 13:22:43;;;;;;;;;;;23.40;37.40;;;;;;5074654;28;19908;-74
2023/01/30 13:25:21;;;;;;;;;;;23.50;37.50;;;;;;5073328;28;19920;-74
2023/01/30 13:27:52;;;;;;;;;;;23.50;37.40;;;;;;5074042;28;20395;-74
2023/01/30 13:30:18;;;;;;;;;;;23.50;37.40;;;;;;5068898;28;20284;-74
2023/01/30 13:32:47;;;;;;;;;;;23.50;37.50;;;;;;5068488;28;19912;-74
2023/01/30 13:35:16;;;;;;;;;;;23.50;37.60;;;;;;5055145;28;19913;-74
2023/01/30 13:37:42;;;;;;;;;;;23.40;37.50;;;;;;5072991;28;19915;-74
2023/01/30 13:40:15;;;;;;;;;;;23.40;37.50;;;;;;5061172;28;19912;-74
2023/01/30 13:42:43;;;;;;;;;;;23.50;37.40;;;;;;5070629;28;20368;-74
2023/01/30 13:45:13;;;;;;;;;;;23.40;37.40;;;;;;5072601;28;20408;-74
2023/01/30 13:47:54;;;;;;;;;;;23.40;37.40;;;;;;5072878;28;20001;-74
2023/01/30 13:50:39;;;;;;;;;;;23.40;37.50;;;;;;5072606;28;19947;-74
2023/01/30 13:53:10;;;;;;;;;;;23.40;37.50;;;;;;5073885;28;19999;-74
2023/01/30 13:55:36;;;;;;;;;;;23.40;37.60;;;;;;5072578;28;19943;-74
2023/01/30 13:58:07;;;;;;;;;;;23.40;37.50;;;;;;5071212;28;20349;-74
2023/01/30 14:00:33;;;;;;;;;;;23.40;37.40;;;;;;5064416;28;20307;-74
2023/01/30 14:03:04;;;;;;;;;;;23.40;37.30;;;;;;5069634;28;19913;-74
2023/01/30 14:05:48;;;;;;;;;;;23.40;37.30;;;;;;5068788;28;19922;-74
2023/01/30 14:08:17;;;;;;;;;;;23.40;37.50;;;;;;5071913;28;19926;-73
2023/01/30 14:10:42;;;;;;;;;;;23.50;37.50;;;;;;5071596;28;20372;-74
2023/01/30 14:13:11;;;;;;;;;;;23.50;37.40;;;;;;5065681;28;19920;-74
2023/01/30 14:15:36;;;;;;;;;;;23.50;37.40;;;;;;5037506;28;19948;-74
2023/01/30 14:18:21;;;;;;;;;;;23.50;37.30;;;;;;5052189;28;19915;-74
2023/01/30 14:20:47;;;;;;;;;;;23.50;37.20;;;;;;5067355;28;19916;-74
2023/01/30 14:23:18;;;;;;;;;;;23.50;37.20;;;;;;5068076;28;19912;-75
2023/01/30 14:25:44;;;;;;;;;;;23.50;37.40;;;;;;5065835;28;19912;-74
2023/01/30 14:28:09;;;;;;;;;;;23.50;37.60;;;;;;5065311;28;19927;-74
2023/01/30 14:30:47;;;;;;;;;;;23.50;37.60;;;;;;5068885;28;19916;-74